sensor_id;sensor_type;location;lat;lon;timestamp;pressure;altitude;pressure_sealevel;temperature;humidity
44531;BME280;30240;47.418;0.700;2023-03-26T00:01:39;99579.87670898438;;;9.43;87.7
44531;BME280;30240;47.418;0.700;2023-03-26T00:04:05;99579.87670898438;;;9.43;87.7
44531;BME280;30240;47.418;0.700;2023-03-26T00:06:30;99578.93676757812;;;9.42;87.72
44531;BME280;30240;47.418;0.700;2023-03-26T00:08:54;99561.96899414062;;;9.42;87.72
44531;BME280;30240;47.418;0.700;2023-03-26T00:11:21;99557.63549804688;;;9.43;87.71
44531;BME280;30240;47.418;0.700;2023-03-26T00:13:44;99558.056640625;;;9.51;87.59
44531;BME280;30240;47.418;0.700;2023-03-26T00:16:09;99558.056640625;;;9.51;87.59
44531;BME280;30240;47.418;0.700;2023-03-26T00:18:34;99551.31225585938;;;9.51;87.79
44531;BME280;30240;47.418;0.700;2023-03-26T00:21:00;99550.0244140625;;;9.51;87.88
44531;BME280;30240;47.418;0.700;2023-03-26T00:23:24;99544.86694335938;;;9.6;87.94
44531;BME280;30240;47.418;0.700;2023-03-26T00:25:49;99546.1181640625;;;9.69;87.9
44531;BME280;30240;47.418;0.700;2023-03-26T00:28:13;99546.1181640625;;;9.69;87.9
44531;BME280;30240;47.418;0.700;2023-03-26T00:30:38;99542.65747070312;;;9.8;87.95
44531;BME280;30240;47.418;0.700;2023-03-26T00:33:03;99532.18994140625;;;9.8;88.01
44531;BME280;30240;47.418;0.700;2023-03-26T00:35:29;99526.64794921875;;;9.8;88.42
44531;BME280;30240;47.418;0.700;2023-03-26T00:37:54;99512.14599609375;;;9.85;88.66
44531;BME280;30240;47.418;0.700;2023-03-26T00:40:19;99510.73608398438;;;9.84;89.25
44531;BME280;30240;47.418;0.700;2023-03-26T00:42:44;99510.73608398438;;;9.84;89.25
44531;BME280;30240;47.418;0.700;2023-03-26T00:45:09;99508.04443359375;;;9.91;89.62
44531;BME280;30240;47.418;0.700;2023-03-26T00:47:33;99490.92407226562;;;9.9;89.95
44531;BME280;30240;47.418;0.700;2023-03-26T00:49:59;99505.48706054688;;;9.92;89.89
44531;BME280;30240;47.418;0.700;2023-03-26T00:52:24;99510.12573242188;;;9.97;89.89
44531;BME280;30240;47.418;0.700;2023-03-26T00:54:50;99510.12573242188;;;9.97;89.89
44531;BME280;30240;47.418;0.700;2023-03-26T00:57:13;99499.49951171875;;;10.01;90.01
44531;BME280;30240;47.418;0.700;2023-03-26T00:59:39;99479.4921875;;;10.17;89.43
44531;BME280;30240;47.418;0.700;2023-03-26T01:02:04;99506.10961914062;;;10.26;89.16
44531;BME280;30240;47.418;0.700;2023-03-26T01:04:31;99512.66479492188;;;10.5;88.17
44531;BME280;30240;47.418;0.700;2023-03-26T01:06:54;99512.66479492188;;;10.5;88.17
44531;BME280;30240;47.418;0.700;2023-03-26T01:09:20;99502.978515625;;;10.54;87.97
44531;BME280;30240;47.418;0.700;2023-03-26T01:11:44;99508.68530273438;;;10.65;86.73
44531;BME280;30240;47.418;0.700;2023-03-26T01:14:11;99510.65673828125;;;10.61;87.24
44531;BME280;30240;47.418;0.700;2023-03-26T01:16:35;99509.75952148438;;;10.69;86.37
44531;BME280;30240;47.418;0.700;2023-03-26T01:18:59;99509.75952148438;;;10.69;86.37
44531;BME280;30240;47.418;0.700;2023-03-26T01:21:26;99515.9912109375;;;10.76;85.69
44531;BME280;30240;47.418;0.700;2023-03-26T01:23:55;99514.81323242188;;;10.72;86.17
44531;BME280;30240;47.418;0.700;2023-03-26T01:26:21;99507.11059570312;;;10.67;86.56
44531;BME280;30240;47.418;0.700;2023-03-26T01:28:39;99519.25048828125;;;10.64;86.81
44531;BME280;30240;47.418;0.700;2023-03-26T01:31:07;99519.25048828125;;;10.64;86.81
44531;BME280;30240;47.418;0.700;2023-03-26T01:33:33;99513.04931640625;;;10.51;87.33
44531;BME280;30240;47.418;0.700;2023-03-26T01:35:57;99518.75610351562;;;10.33;88.09
44531;BME280;30240;47.418;0.700;2023-03-26T01:38:23;99533.72802734375;;;10.13;89.91
44531;BME280;30240;47.418;0.700;2023-03-26T01:38:28;99533.72802734375;;;10.13;89.91
44531;BME280;30240;47.418;0.700;2023-03-26T01:40:46;99549.4384765625;;;10.09;89.76
44531;BME280;30240;47.418;0.700;2023-03-26T01:43:12;99549.4384765625;;;10.09;89.76
44531;BME280;30240;47.418;0.700;2023-03-26T01:45:37;99519.50073242188;;;9.67;89.83
44531;BME280;30240;47.418;0.700;2023-03-26T01:47:59;99515.4541015625;;;9.32;89.61
44531;BME280;30240;47.418;0.700;2023-03-26T01:50:24;99494.75708007812;;;9.19;89.84
44531;BME280;30240;47.418;0.700;2023-03-26T01:52:48;99512.16430664062;;;9.12;90.47
44531;BME280;30240;47.418;0.700;2023-03-26T01:55:13;99512.16430664062;;;9.12;90.47
44531;BME280;30240;47.418;0.700;2023-03-26T01:57:45;99526.81274414062;;;9.31;89.55
44531;BME280;30240;47.418;0.700;2023-03-26T02:00:18;99511.35864257812;;;9.53;88.27
44531;BME280;30240;47.418;0.700;2023-03-26T02:02:32;99522.88818359375;;;9.54;88.09
44531;BME280;30240;47.418;0.700;2023-03-26T02:02:37;99522.88818359375;;;9.54;88.09
44531;BME280;30240;47.418;0.700;2023-03-26T02:04:56;99519.9462890625;;;9.5;88.04
44531;BME280;30240;47.418;0.700;2023-03-26T02:07:21;99519.9462890625;;;9.5;88.04
44531;BME280;30240;47.418;0.700;2023-03-26T02:09:46;99515.68603515625;;;9.44;88.0
44531;BME280;30240;47.418;0.700;2023-03-26T02:12:09;99523.88916015625;;;9.46;87.42
44531;BME280;30240;47.418;0.700;2023-03-26T02:14:34;99528.31420898438;;;9.43;87.37
44531;BME280;30240;47.418;0.700;2023-03-26T02:16:58;99520.0439453125;;;9.44;87.23
44531;BME280;30240;47.418;0.700;2023-03-26T02:19:24;99519.56176757812;;;9.42;87.18
44531;BME280;30240;47.418;0.700;2023-03-26T02:21:49;99519.56176757812;;;9.42;87.18
44531;BME280;30240;47.418;0.700;2023-03-26T02:24:14;99494.5068359375;;;9.5;86.75
44531;BME280;30240;47.418;0.700;2023-03-26T02:26:38;99511.87744140625;;;9.56;86.87
44531;BME280;30240;47.418;0.700;2023-03-26T02:29:03;99506.84204101562;;;9.49;87.36
44531;BME280;30240;47.418;0.700;2023-03-26T02:31:28;99495.1171875;;;9.46;87.44
44531;BME280;30240;47.418;0.700;2023-03-26T02:33:54;99495.1171875;;;9.46;87.44
44531;BME280;30240;47.418;0.700;2023-03-26T02:36:18;99501.31225585938;;;9.44;87.3
44531;BME280;30240;47.418;0.700;2023-03-26T02:38:43;99520.8251953125;;;9.46;87.3
44531;BME280;30240;47.418;0.700;2023-03-26T02:41:09;99501.62353515625;;;9.4;87.21
44531;BME280;30240;47.418;0.700;2023-03-26T02:43:33;99520.20263671875;;;9.51;86.22
44531;BME280;30240;47.418;0.700;2023-03-26T02:45:58;99520.20263671875;;;9.51;86.22
44531;BME280;30240;47.418;0.700;2023-03-26T02:48:24;99508.67919921875;;;9.5;86.28
44531;BME280;30240;47.418;0.700;2023-03-26T02:50:49;99514.67895507812;;;9.46;86.23
44531;BME280;30240;47.418;0.700;2023-03-26T02:53:14;99516.31469726562;;;9.47;85.91
44531;BME280;30240;47.418;0.700;2023-03-26T02:55:38;99518.701171875;;;9.43;85.7
44531;BME280;30240;47.418;0.700;2023-03-26T02:58:04;99518.701171875;;;9.43;85.7
44531;BME280;30240;47.418;0.700;2023-03-26T03:00:29;99516.15600585938;;;9.39;85.72
44531;BME280;30240;47.418;0.700;2023-03-26T03:02:53;99514.0625;;;9.39;85.63
44531;BME280;30240;47.418;0.700;2023-03-26T03:05:19;99510.11962890625;;;9.42;85.74
44531;BME280;30240;47.418;0.700;2023-03-26T03:07:44;99516.24755859375;;;9.36;86.19
44531;BME280;30240;47.418;0.700;2023-03-26T03:10:09;99516.24755859375;;;9.36;86.19
44531;BME280;30240;47.418;0.700;2023-03-26T03:12:34;99514.48364257812;;;9.38;86.33
44531;BME280;30240;47.418;0.700;2023-03-26T03:14:59;99509.2529296875;;;9.36;85.87
44531;BME280;30240;47.418;0.700;2023-03-26T03:17:23;99512.51831054688;;;9.42;85.53
44531;BME280;30240;47.418;0.700;2023-03-26T03:19:48;99508.544921875;;;9.42;85.74
44531;BME280;30240;47.418;0.700;2023-03-26T03:22:14;99508.544921875;;;9.42;85.74
44531;BME280;30240;47.418;0.700;2023-03-26T03:24:38;99514.22119140625;;;9.29;86.16
44531;BME280;30240;47.418;0.700;2023-03-26T03:27:04;99514.5263671875;;;9.4;85.36
44531;BME280;30240;47.418;0.700;2023-03-26T03:29:29;99502.28271484375;;;9.28;85.98
44531;BME280;30240;47.418;0.700;2023-03-26T03:31:53;99507.09228515625;;;9.24;86.1
44531;BME280;30240;47.418;0.700;2023-03-26T03:34:18;99507.09228515625;;;9.24;86.1
44531;BME280;30240;47.418;0.700;2023-03-26T03:36:49;99502.54516601562;;;9.21;86.02
44531;BME280;30240;47.418;0.700;2023-03-26T03:39:09;99511.4501953125;;;9.24;85.91
44531;BME280;30240;47.418;0.700;2023-03-26T03:41:34;99498.57177734375;;;9.22;85.74
44531;BME280;30240;47.418;0.700;2023-03-26T03:44:06;99502.04467773438;;;9.25;85.72
44531;BME280;30240;47.418;0.700;2023-03-26T03:46:24;99507.1533203125;;;9.16;85.74
44531;BME280;30240;47.418;0.700;2023-03-26T03:48:49;99507.1533203125;;;9.16;85.74
44531;BME280;30240;47.418;0.700;2023-03-26T03:51:14;99511.87744140625;;;9.24;85.53
44531;BME280;30240;47.418;0.700;2023-03-26T03:53:38;99510.7421875;;;9.24;85.44
44531;BME280;30240;47.418;0.700;2023-03-26T03:56:04;99500.2685546875;;;9.22;85.39
44531;BME280;30240;47.418;0.700;2023-03-26T03:58:28;99508.3740234375;;;9.11;85.71
44531;BME280;30240;47.418;0.700;2023-03-26T04:00:54;99508.3740234375;;;9.11;85.71
44531;BME280;30240;47.418;0.700;2023-03-26T04:03:19;99507.8125;;;9.05;85.85
44531;BME280;30240;47.418;0.700;2023-03-26T04:05:44;99516.65649414062;;;9.07;85.78
44531;BME280;30240;47.418;0.700;2023-03-26T04:08:08;99515.4541015625;;;9.12;85.81
44531;BME280;30240;47.418;0.700;2023-03-26T04:10:33;99511.82861328125;;;9.15;85.72
44531;BME280;30240;47.418;0.700;2023-03-26T04:12:59;99511.82861328125;;;9.15;85.72
44531;BME280;30240;47.418;0.700;2023-03-26T04:15:23;99509.07592773438;;;9.11;85.75
44531;BME280;30240;47.418;0.700;2023-03-26T04:17:48;99501.3427734375;;;9.05;86.03
44531;BME280;30240;47.418;0.700;2023-03-26T04:20:13;99488.97094726562;;;9.08;85.91
44531;BME280;30240;47.418;0.700;2023-03-26T04:22:39;99490.37475585938;;;9.03;86.06
44531;BME280;30240;47.418;0.700;2023-03-26T04:25:04;99490.37475585938;;;9.03;86.06
44531;BME280;30240;47.418;0.700;2023-03-26T04:27:30;99475.64697265625;;;9.0;86.08
44531;BME280;30240;47.418;0.700;2023-03-26T04:29:53;99484.68627929688;;;9.05;85.72
44531;BME280;30240;47.418;0.700;2023-03-26T04:32:21;99487.109375;;;9.05;85.82
44531;BME280;30240;47.418;0.700;2023-03-26T04:34:44;99480.517578125;;;9.08;85.84
44531;BME280;30240;47.418;0.700;2023-03-26T04:37:13;99480.517578125;;;9.08;85.84
44531;BME280;30240;47.418;0.700;2023-03-26T04:39:33;99483.92333984375;;;9.05;85.97
44531;BME280;30240;47.418;0.700;2023-03-26T04:41:58;99482.17163085938;;;9.01;86.04
44531;BME280;30240;47.418;0.700;2023-03-26T04:44:23;99479.65087890625;;;9.03;86.01
44531;BME280;30240;47.418;0.700;2023-03-26T04:46:49;99474.57275390625;;;9.01;86.09
44531;BME280;30240;47.418;0.700;2023-03-26T04:49:13;99474.57275390625;;;9.01;86.09
44531;BME280;30240;47.418;0.700;2023-03-26T04:51:39;99474.7314453125;;;9.03;85.94
44531;BME280;30240;47.418;0.700;2023-03-26T04:54:04;99479.21142578125;;;9.04;86.03
44531;BME280;30240;47.418;0.700;2023-03-26T04:56:33;99491.18041992188;;;9.08;85.88
44531;BME280;30240;47.418;0.700;2023-03-26T04:58:56;99471.28295898438;;;9.07;85.93
44531;BME280;30240;47.418;0.700;2023-03-26T05:01:18;99471.28295898438;;;9.07;85.93
44531;BME280;30240;47.418;0.700;2023-03-26T05:03:44;99468.75;;;9.12;85.68
44531;BME280;30240;47.418;0.700;2023-03-26T05:06:10;99470.08666992188;;;9.14;85.93
44531;BME280;30240;47.418;0.700;2023-03-26T05:08:33;99468.71337890625;;;9.15;85.92
44531;BME280;30240;47.418;0.700;2023-03-26T05:10:58;99472.57690429688;;;9.16;86.2
44531;BME280;30240;47.418;0.700;2023-03-26T05:13:23;99472.57690429688;;;9.16;86.2
44531;BME280;30240;47.418;0.700;2023-03-26T05:15:48;99471.11206054688;;;9.15;86.29
44531;BME280;30240;47.418;0.700;2023-03-26T05:18:14;99468.81103515625;;;9.1;86.0
44531;BME280;30240;47.418;0.700;2023-03-26T05:20:39;99467.54760742188;;;9.12;86.3
44531;BME280;30240;47.418;0.700;2023-03-26T05:23:03;99458.51440429688;;;9.14;86.16
44531;BME280;30240;47.418;0.700;2023-03-26T05:25:28;99467.73681640625;;;9.0;86.89
44531;BME280;30240;47.418;0.700;2023-03-26T05:27:54;99467.73681640625;;;9.0;86.89
44531;BME280;30240;47.418;0.700;2023-03-26T05:30:20;99469.3359375;;;8.96;87.46
44531;BME280;30240;47.418;0.700;2023-03-26T05:32:45;99475.40893554688;;;8.9;87.86
44531;BME280;30240;47.418;0.700;2023-03-26T05:35:08;99474.2919921875;;;8.85;88.29
44531;BME280;30240;47.418;0.700;2023-03-26T05:37:34;99462.90893554688;;;8.67;89.53
44531;BME280;30240;47.418;0.700;2023-03-26T05:39:59;99462.90893554688;;;8.67;89.53
44531;BME280;30240;47.418;0.700;2023-03-26T05:42:24;99464.92919921875;;;8.57;89.94
44531;BME280;30240;47.418;0.700;2023-03-26T05:44:48;99470.83740234375;;;8.63;89.63
44531;BME280;30240;47.418;0.700;2023-03-26T05:47:13;99459.09423828125;;;8.57;89.95
44531;BME280;30240;47.418;0.700;2023-03-26T05:49:38;99452.92358398438;;;8.52;90.33
44531;BME280;30240;47.418;0.700;2023-03-26T05:52:04;99452.92358398438;;;8.52;90.33
44531;BME280;30240;47.418;0.700;2023-03-26T05:54:28;99454.23583984375;;;8.42;90.23
44531;BME280;30240;47.418;0.700;2023-03-26T05:56:53;99440.576171875;;;8.42;90.49
44531;BME280;30240;47.418;0.700;2023-03-26T05:59:18;99441.5283203125;;;8.38;90.25
44531;BME280;30240;47.418;0.700;2023-03-26T06:01:43;99445.01342773438;;;8.34;89.84
44531;BME280;30240;47.418;0.700;2023-03-26T06:04:10;99445.01342773438;;;8.34;89.84
44531;BME280;30240;47.418;0.700;2023-03-26T06:06:33;99426.7333984375;;;8.39;88.91
44531;BME280;30240;47.418;0.700;2023-03-26T06:08:58;99439.14184570312;;;8.42;89.05
44531;BME280;30240;47.418;0.700;2023-03-26T06:11:23;99440.65551757812;;;8.32;89.2
44531;BME280;30240;47.418;0.700;2023-03-26T06:13:48;99429.37622070312;;;8.31;88.44
44531;BME280;30240;47.418;0.700;2023-03-26T06:16:14;99429.37622070312;;;8.31;88.44
44531;BME280;30240;47.418;0.700;2023-03-26T06:18:39;99433.34350585938;;;8.25;87.89
44531;BME280;30240;47.418;0.700;2023-03-26T06:21:04;99438.65356445312;;;8.27;86.88
44531;BME280;30240;47.418;0.700;2023-03-26T06:23:29;99435.01586914062;;;8.37;87.13
44531;BME280;30240;47.418;0.700;2023-03-26T06:25:54;99430.9814453125;;;8.24;87.37
44531;BME280;30240;47.418;0.700;2023-03-26T06:28:18;99430.9814453125;;;8.24;87.37
44531;BME280;30240;47.418;0.700;2023-03-26T06:30:43;99432.666015625;;;8.28;86.17
44531;BME280;30240;47.418;0.700;2023-03-26T06:33:09;99430.65795898438;;;8.25;86.21
44531;BME280;30240;47.418;0.700;2023-03-26T06:35:33;99432.12280273438;;;8.31;85.95
44531;BME280;30240;47.418;0.700;2023-03-26T06:37:58;99426.171875;;;8.25;85.87
44531;BME280;30240;47.418;0.700;2023-03-26T06:40:24;99426.171875;;;8.25;85.87
44531;BME280;30240;47.418;0.700;2023-03-26T06:42:48;99426.0498046875;;;8.27;86.04
44531;BME280;30240;47.418;0.700;2023-03-26T06:45:14;99434.46655273438;;;8.25;86.44
44531;BME280;30240;47.418;0.700;2023-03-26T06:47:38;99436.669921875;;;8.28;86.1
44531;BME280;30240;47.418;0.700;2023-03-26T06:50:04;99445.89233398438;;;8.31;85.89
44531;BME280;30240;47.418;0.700;2023-03-26T06:52:28;99438.56811523438;;;8.37;86.24
44531;BME280;30240;47.418;0.700;2023-03-26T06:54:53;99438.56811523438;;;8.37;86.24
44531;BME280;30240;47.418;0.700;2023-03-26T06:57:18;99447.4853515625;;;8.34;85.61
44531;BME280;30240;47.418;0.700;2023-03-26T06:59:43;99452.2216796875;;;8.3;86.07
44531;BME280;30240;47.418;0.700;2023-03-26T07:02:09;99451.611328125;;;8.35;86.1
44531;BME280;30240;47.418;0.700;2023-03-26T07:04:33;99459.14306640625;;;8.35;86.28
44531;BME280;30240;47.418;0.700;2023-03-26T07:06:58;99459.14306640625;;;8.35;86.28
44531;BME280;30240;47.418;0.700;2023-03-26T07:09:23;99470.23315429688;;;8.39;86.18
44531;BME280;30240;47.418;0.700;2023-03-26T07:11:48;99468.51806640625;;;8.42;86.46
44531;BME280;30240;47.418;0.700;2023-03-26T07:14:13;99481.591796875;;;8.44;86.02
44531;BME280;30240;47.418;0.700;2023-03-26T07:16:38;99478.32641601562;;;8.48;86.02
44531;BME280;30240;47.418;0.700;2023-03-26T07:19:03;99478.32641601562;;;8.48;86.02
44531;BME280;30240;47.418;0.700;2023-03-26T07:21:29;99481.89697265625;;;8.62;85.79
44531;BME280;30240;47.418;0.700;2023-03-26T07:23:54;99483.57543945312;;;8.72;85.57
44531;BME280;30240;47.418;0.700;2023-03-26T07:26:25;99488.671875;;;8.76;85.56
44531;BME280;30240;47.418;0.700;2023-03-26T07:26:31;99488.671875;;;8.76;85.56
44531;BME280;30240;47.418;0.700;2023-03-26T07:28:46;99498.29711914062;;;8.77;85.37
44531;BME280;30240;47.418;0.700;2023-03-26T07:31:16;99498.29711914062;;;8.77;85.37
44531;BME280;30240;47.418;0.700;2023-03-26T07:33:36;99484.9365234375;;;8.79;85.74
44531;BME280;30240;47.418;0.700;2023-03-26T07:36:06;99499.23706054688;;;8.9;84.9
44531;BME280;30240;47.418;0.700;2023-03-26T07:38:39;99494.81201171875;;;8.98;84.88
44531;BME280;30240;47.418;0.700;2023-03-26T07:38:45;99494.81201171875;;;8.98;84.88
44531;BME280;30240;47.418;0.700;2023-03-26T07:40:54;99486.74926757812;;;9.0;84.99
44531;BME280;30240;47.418;0.700;2023-03-26T07:41:01;99486.74926757812;;;9.0;84.99
44531;BME280;30240;47.418;0.700;2023-03-26T07:43:20;99486.74926757812;;;9.0;84.99
44531;BME280;30240;47.418;0.700;2023-03-26T07:45:40;99481.4697265625;;;9.0;85.06
44531;BME280;30240;47.418;0.700;2023-03-26T07:48:07;99477.98461914062;;;9.5;84.37
44531;BME280;30240;47.418;0.700;2023-03-26T07:50:29;99457.47680664062;;;9.4;84.6
44531;BME280;30240;47.418;0.700;2023-03-26T07:52:54;99447.57690429688;;;9.94;83.38
44531;BME280;30240;47.418;0.700;2023-03-26T07:55:19;99447.57690429688;;;9.94;83.38
44531;BME280;30240;47.418;0.700;2023-03-26T07:57:56;99436.41967773438;;;9.38;84.62
44531;BME280;30240;47.418;0.700;2023-03-26T08:00:11;99405.74951171875;;;9.69;83.82
44531;BME280;30240;47.418;0.700;2023-03-26T08:02:40;99397.4365234375;;;9.73;83.29
44531;BME280;30240;47.418;0.700;2023-03-26T08:05:04;99384.033203125;;;9.75;83.82
44531;BME280;30240;47.418;0.700;2023-03-26T08:07:29;99384.033203125;;;9.75;83.82
44531;BME280;30240;47.418;0.700;2023-03-26T08:10:01;99410.23559570312;;;9.61;83.97
44531;BME280;30240;47.418;0.700;2023-03-26T08:12:21;99390.07568359375;;;9.94;82.56
44531;BME280;30240;47.418;0.700;2023-03-26T08:12:26;99390.07568359375;;;9.94;82.56
44531;BME280;30240;47.418;0.700;2023-03-26T08:14:45;99379.99267578125;;;10.22;82.06
44531;BME280;30240;47.418;0.700;2023-03-26T08:17:08;99398.388671875;;;9.77;82.7
44531;BME280;30240;47.418;0.700;2023-03-26T08:19:36;99398.388671875;;;9.77;82.7
44531;BME280;30240;47.418;0.700;2023-03-26T08:21:57;99386.29760742188;;;10.32;81.99
44531;BME280;30240;47.418;0.700;2023-03-26T08:24:21;99382.14111328125;;;9.9;82.43
44531;BME280;30240;47.418;0.700;2023-03-26T08:26:49;99398.876953125;;;10.28;81.77
44531;BME280;30240;47.418;0.700;2023-03-26T08:29:13;99398.779296875;;;10.69;81.07
44531;BME280;30240;47.418;0.700;2023-03-26T08:31:35;99431.82983398438;;;10.57;81.01
44531;BME280;30240;47.418;0.700;2023-03-26T08:33:59;99431.82983398438;;;10.57;81.01
44531;BME280;30240;47.418;0.700;2023-03-26T08:36:23;99470.33081054688;;;11.02;80.51
44531;BME280;30240;47.418;0.700;2023-03-26T08:38:48;99480.67016601562;;;10.69;80.62
44531;BME280;30240;47.418;0.700;2023-03-26T08:41:25;99486.92016601562;;;11.0;80.63
44531;BME280;30240;47.418;0.700;2023-03-26T08:41:57;99486.92016601562;;;11.0;80.63
44531;BME280;30240;47.418;0.700;2023-03-26T08:44:36;99500.86059570312;;;10.69;81.26
44531;BME280;30240;47.418;0.700;2023-03-26T08:46:10;99500.86059570312;;;10.69;81.26
44531;BME280;30240;47.418;0.700;2023-03-26T08:46:30;99500.86059570312;;;10.69;81.26
44531;BME280;30240;47.418;0.700;2023-03-26T08:48:59;99502.099609375;;;10.67;81.15
44531;BME280;30240;47.418;0.700;2023-03-26T08:51:13;99490.85083007812;;;10.81;80.34
44531;BME280;30240;47.418;0.700;2023-03-26T08:51:26;99490.85083007812;;;10.81;80.34
44531;BME280;30240;47.418;0.700;2023-03-26T08:51:35;99490.85083007812;;;10.81;80.34
44531;BME280;30240;47.418;0.700;2023-03-26T08:51:51;99490.85083007812;;;10.81;80.34
44531;BME280;30240;47.418;0.700;2023-03-26T08:53:25;99498.15673828125;;;10.92;80.25
44531;BME280;30240;47.418;0.700;2023-03-26T08:53:47;99498.15673828125;;;10.92;80.25
44531;BME280;30240;47.418;0.700;2023-03-26T08:55:48;99529.57763671875;;;11.0;79.79
44531;BME280;30240;47.418;0.700;2023-03-26T08:58:53;99529.57763671875;;;11.0;79.79
44531;BME280;30240;47.418;0.700;2023-03-26T09:00:39;99501.11083984375;;;10.71;79.97
44531;BME280;30240;47.418;0.700;2023-03-26T09:03:07;99506.78100585938;;;11.34;79.25
44531;BME280;30240;47.418;0.700;2023-03-26T09:03:22;99506.78100585938;;;11.34;79.25
44531;BME280;30240;47.418;0.700;2023-03-26T09:03:32;99506.78100585938;;;11.34;79.25
44531;BME280;30240;47.418;0.700;2023-03-26T09:05:40;99515.59448242188;;;11.65;78.68
44531;BME280;30240;47.418;0.700;2023-03-26T09:08:57;99510.57739257812;;;11.57;78.41
44531;BME280;30240;47.418;0.700;2023-03-26T09:09:13;99510.57739257812;;;11.57;78.41
44531;BME280;30240;47.418;0.700;2023-03-26T09:10:45;99510.57739257812;;;11.57;78.41
44531;BME280;30240;47.418;0.700;2023-03-26T09:12:54;99511.41967773438;;;12.34;75.96
44531;BME280;30240;47.418;0.700;2023-03-26T09:13:13;99511.41967773438;;;12.34;75.96
44531;BME280;30240;47.418;0.700;2023-03-26T09:13:22;99511.41967773438;;;12.34;75.96
44531;BME280;30240;47.418;0.700;2023-03-26T09:15:42;99523.18725585938;;;11.24;78.69
44531;BME280;30240;47.418;0.700;2023-03-26T09:15:56;99523.18725585938;;;11.24;78.69
44531;BME280;30240;47.418;0.700;2023-03-26T09:17:48;99507.2998046875;;;10.98;77.68
44531;BME280;30240;47.418;0.700;2023-03-26T09:18:01;99507.2998046875;;;10.98;77.68
44531;BME280;30240;47.418;0.700;2023-03-26T09:18:14;99507.2998046875;;;10.98;77.68
44531;BME280;30240;47.418;0.700;2023-03-26T09:20:02;99523.77319335938;;;11.65;77.74
44531;BME280;30240;47.418;0.700;2023-03-26T09:23:10;99523.77319335938;;;11.65;77.74
44531;BME280;30240;47.418;0.700;2023-03-26T09:23:19;99523.77319335938;;;11.65;77.74
44531;BME280;30240;47.418;0.700;2023-03-26T09:23:29;99523.77319335938;;;11.65;77.74
44531;BME280;30240;47.418;0.700;2023-03-26T09:25:35;99535.9130859375;;;11.47;79.01
44531;BME280;30240;47.418;0.700;2023-03-26T09:27:39;99530.859375;;;12.76;75.68
44531;BME280;30240;47.418;0.700;2023-03-26T09:27:49;99530.859375;;;12.76;75.68
44531;BME280;30240;47.418;0.700;2023-03-26T09:27:58;99530.859375;;;12.76;75.68
44531;BME280;30240;47.418;0.700;2023-03-26T09:28:08;99530.859375;;;12.76;75.68
44531;BME280;30240;47.418;0.700;2023-03-26T09:28:17;99530.859375;;;12.76;75.68
44531;BME280;30240;47.418;0.700;2023-03-26T09:30:31;99534.73510742188;;;11.94;78.08
44531;BME280;30240;47.418;0.700;2023-03-26T09:33:07;99517.38891601562;;;12.35;74.75
44531;BME280;30240;47.418;0.700;2023-03-26T09:33:17;99517.38891601562;;;12.35;74.75
44531;BME280;30240;47.418;0.700;2023-03-26T09:34:27;99517.38891601562;;;12.35;74.75
44531;BME280;30240;47.418;0.700;2023-03-26T09:36:53;99534.82666015625;;;11.51;77.39
44531;BME280;30240;47.418;0.700;2023-03-26T09:39:16;99544.15893554688;;;11.23;78.28
44531;BME280;30240;47.418;0.700;2023-03-26T09:41:42;99556.69555664062;;;11.17;78.21
44531;BME280;30240;47.418;0.700;2023-03-26T09:44:31;99535.11962890625;;;11.41;76.97
44531;BME280;30240;47.418;0.700;2023-03-26T09:44:41;99535.11962890625;;;11.41;76.97
44531;BME280;30240;47.418;0.700;2023-03-26T09:44:59;99535.11962890625;;;11.41;76.97
44531;BME280;30240;47.418;0.700;2023-03-26T09:46:35;99535.11962890625;;;11.41;76.97
44531;BME280;30240;47.418;0.700;2023-03-26T09:46:41;99535.11962890625;;;11.41;76.97
44531;BME280;30240;47.418;0.700;2023-03-26T09:49:00;99554.09545898438;;;12.38;76.54
44531;BME280;30240;47.418;0.700;2023-03-26T09:51:33;99537.70141601562;;;11.72;77.27
44531;BME280;30240;47.418;0.700;2023-03-26T09:51:40;99537.70141601562;;;11.72;77.27
44531;BME280;30240;47.418;0.700;2023-03-26T09:51:47;99537.70141601562;;;11.72;77.27
44531;BME280;30240;47.418;0.700;2023-03-26T09:53:50;99525.15869140625;;;11.99;75.87
44531;BME280;30240;47.418;0.700;2023-03-26T09:56:19;99537.28637695312;;;11.48;75.87
44531;BME280;30240;47.418;0.700;2023-03-26T09:58:52;99540.43579101562;;;11.5;76.71
44531;BME280;30240;47.418;0.700;2023-03-26T10:01:04;99540.43579101562;;;11.5;76.71
44531;BME280;30240;47.418;0.700;2023-03-26T10:03:28;99543.02978515625;;;11.34;76.93
44531;BME280;30240;47.418;0.700;2023-03-26T10:06:12;99518.82934570312;;;12.23;73.39
44531;BME280;30240;47.418;0.700;2023-03-26T10:08:23;99542.07763671875;;;11.47;76.95
44531;BME280;30240;47.418;0.700;2023-03-26T10:10:45;99525.01831054688;;;12.52;74.59
44531;BME280;30240;47.418;0.700;2023-03-26T10:13:07;99525.01831054688;;;12.52;74.59
44531;BME280;30240;47.418;0.700;2023-03-26T10:15:33;99502.87475585938;;;12.35;74.65
44531;BME280;30240;47.418;0.700;2023-03-26T10:18:00;99501.25732421875;;;12.06;77.27
44531;BME280;30240;47.418;0.700;2023-03-26T10:20:28;99490.185546875;;;13.62;72.86